Time;durP1;ratioP1;P1;durP2;ratioP2;P2;SDS_P1;SDS_P2;PMS_P1;PMS_P2;Temp;Humidity;BMP_temperature;BMP_pressure;BME280_temperature;BME280_humidity;BME280_pressure;Samples;Min_cycle;Max_cycle;Signal;HPM_P1;HPM_P2
2023/02/09 00:00:57;;;;;;;;;;;;;;;;;;5073845;28;20011;-67
2023/02/09 00:03:23;;;;;;;;;;;;;;;;;;5072465;28;20250;-67
2023/02/09 00:05:49;;;;;;;;;;;;;;;;;;5070724;28;19928;-66
2023/02/09 00:08:15;;;;;;;;;;;;;;;;;;5071062;28;19970;-67
2023/02/09 00:10:41;;;;;;;;;;;;;;;;;;5074273;28;19920;-67
2023/02/09 00:13:22;;;;;;;;;;;;;;;;;;5074309;28;19962;-67
2023/02/09 00:15:48;;;;;;;;;;;;;;;;;;5071752;28;19929;-66
2023/02/09 00:18:14;;;;;;;;;;;;;;;;;;5073012;28;19935;-67
2023/02/09 00:20:39;;;;;;;;;;;;;;;;;;5073830;28;20385;-67
2023/02/09 00:23:05;;;;;;;;;;;;;;;;;;5069623;28;19963;-67
2023/02/09 00:25:31;;;;;;;;;;;;;;;;;;5073141;28;19971;-67
2023/02/09 00:27:57;;;;;;;;;;;;;;;;;;5073496;28;21632;-66
2023/02/09 00:30:23;;;;;;;;;;;;;;;;;;5073537;28;19920;-67
2023/02/09 00:32:49;;;;;;;;;;;;;;;;;;5071776;28;19920;-67
2023/02/09 00:35:16;;;;;;;;;;;;;;;;;;5073198;28;19925;-67
2023/02/09 00:37:41;;;;;;;;;;;;;;;;;;5073524;28;20379;-67
2023/02/09 00:40:07;;;;;;;;;;;;;;;;;;5073101;28;19983;-67
2023/02/09 00:42:33;;;;;;;;;;;;;;;;;;5065348;28;19935;-67
2023/02/09 00:44:59;;;;;;;;;;;;;;;;;;5071184;28;20002;-67
2023/02/09 00:47:25;;;;;;;;;;;;;;;;;;5073204;28;19927;-67
2023/02/09 00:49:51;;;;;;;;;;;;;;;;;;5070840;28;19921;-67
2023/02/09 00:52:17;;;;;;;;;;;;;;;;;;5071332;28;19920;-67
2023/02/09 00:54:43;;;;;;;;;;;;;;;;;;5070071;28;20385;-67
2023/02/09 00:57:09;;;;;;;;;;;;;;;;;;5068370;28;19932;-67
2023/02/09 00:59:35;;;;;;;;;;;;;;;;;;5069613;28;19927;-67
2023/02/09 01:02:01;;;;;;;;;;;;;;;;;;5071850;28;19971;-67
2023/02/09 01:04:26;;;;;;;;;;;;;;;;;;5072273;28;20017;-67
2023/02/09 01:06:52;;;;;;;;;;;;;;;;;;5073384;28;20338;-67
2023/02/09 01:09:18;;;;;;;;;;;;;;;;;;5068714;28;19920;-67
2023/02/09 01:11:44;;;;;;;;;;;;;;;;;;5064360;28;19932;-66
2023/02/09 01:14:10;;;;;;;;;;;;;;;;;;5072677;28;19920;-67
2023/02/09 01:16:36;;;;;;;;;;;;;;;;;;5070635;28;19932;-67
2023/02/09 01:19:02;;;;;;;;;;;;;;;;;;5073266;28;19924;-67
2023/02/09 01:21:28;;;;;;;;;;;;;;;;;;5051089;28;19930;-66
2023/02/09 01:23:54;;;;;;;;;;;;;;;;;;5069449;28;20285;-66
2023/02/09 01:26:20;;;;;;;;;;;;;;;;;;5064551;28;19921;-67
2023/02/09 01:28:46;;;;;;;;;;;;;;;;;;5067327;28;19927;-66
2023/02/09 01:31:12;;;;;;;;;;;;;;;;;;5070383;28;20382;-67
2023/02/09 01:33:38;;;;;;;;;;;;;;;;;;5069607;28;19928;-66
2023/02/09 01:36:04;;;;;;;;;;;;;;;;;;5072117;28;19963;-66
2023/02/09 01:38:29;;;;;;;;;;;;;;;;;;5073038;28;19935;-66
2023/02/09 01:40:55;;;;;;;;;;;;;;;;;;5072795;28;19967;-66
2023/02/09 01:43:21;;;;;;;;;;;;;;;;;;5066579;28;19927;-67
2023/02/09 01:45:48;;;;;;;;;;;;;;;;;;5068823;28;19921;-66
2023/02/09 01:48:14;;;;;;;;;;;;;;;;;;5070690;28;20370;-66
2023/02/09 01:50:40;;;;;;;;;;;;;;;;;;5073195;28;19926;-66
2023/02/09 01:53:06;;;;;;;;;;;;;;;;;;5065986;28;19927;-66
2023/02/09 01:55:32;;;;;;;;;;;;;;;;;;5068241;28;20460;-66
2023/02/09 01:57:58;;;;;;;;;;;;;;;;;;5068084;28;19924;-66
2023/02/09 02:00:24;;;;;;;;;;;;;;;;;;5063508;28;19925;-66
2023/02/09 02:02:50;;;;;;;;;;;;;;;;;;5065347;28;20285;-67
2023/02/09 02:05:15;;;;;;;;;;;;;;;;;;5071109;28;19946;-66
2023/02/09 02:07:41;;;;;;;;;;;;;;;;;;5072397;28;19920;-67
2023/02/09 02:10:07;;;;;;;;;;;;;;;;;;5068029;28;19932;-66
2023/02/09 02:12:33;;;;;;;;;;;;;;;;;;5071367;28;20084;-66
2023/02/09 02:14:59;;;;;;;;;;;;;;;;;;5073533;28;19974;-66
2023/02/09 02:17:25;;;;;;;;;;;;;;;;;;5070568;28;19972;-66
2023/02/09 02:19:51;;;;;;;;;;;;;;;;;;5073475;28;19931;-66
2023/02/09 02:22:17;;;;;;;;;;;;;;;;;;5071116;28;20011;-66
2023/02/09 02:24:43;;;;;;;;;;;;;;;;;;5065176;28;19920;-66
2023/02/09 02:27:09;;;;;;;;;;;;;;;;;;5072076;28;19935;-66
2023/02/09 02:29:35;;;;;;;;;;;;;;;;;;5063194;28;19967;-66
2023/02/09 02:32:01;;;;;;;;;;;;;;;;;;5070366;28;19968;-66
2023/02/09 02:34:27;;;;;;;;;;;;;;;;;;5066080;28;19924;-66
2023/02/09 02:36:54;;;;;;;;;;;;;;;;;;5068691;28;19946;-66
2023/02/09 02:39:21;;;;;;;;;;;;;;;;;;5071138;28;20412;-66
2023/02/09 02:44:31;;;;;;;;;;;;;;;;;;5072874;28;19925;-65
2023/02/09 02:46:57;;;;;;;;;;;;;;;;;;5071105;28;20277;-65
2023/02/09 02:49:23;;;;;;;;;;;;;;;;;;5066835;28;19974;-66
2023/02/09 02:51:49;;;;;;;;;;;;;;;;;;5064988;28;19920;-66
2023/02/09 02:54:15;;;;;;;;;;;;;;;;;;5066761;28;19942;-66
2023/02/09 02:56:41;;;;;;;;;;;;;;;;;;5066542;28;19932;-66
2023/02/09 02:59:07;;;;;;;;;;;;;;;;;;5063049;28;19924;-65
2023/02/09 03:01:33;;;;;;;;;;;;;;;;;;5064440;28;20607;-66
2023/02/09 03:03:59;;;;;;;;;;;;;;;;;;5069259;28;19928;-67
2023/02/09 03:06:26;;;;;;;;;;;;;;;;;;5071805;28;19971;-67
2023/02/09 03:08:52;;;;;;;;;;;;;;;;;;5053313;28;19946;-67
2023/02/09 03:11:17;;;;;;;;;;;;;;;;;;5064186;28;19929;-67
2023/02/09 03:13:43;;;;;;;;;;;;;;;;;;5066501;28;20058;-67
2023/02/09 03:16:09;;;;;;;;;;;;;;;;;;5069575;28;20305;-67
2023/02/09 03:18:35;;;;;;;;;;;;;;;;;;5063434;28;19925;-67
2023/02/09 03:21:01;;;;;;;;;;;;;;;;;;5069878;28;19999;-67
2023/02/09 03:23:27;;;;;;;;;;;;;;;;;;5066132;28;19928;-67
2023/02/09 03:25:53;;;;;;;;;;;;;;;;;;5067051;28;19932;-67
2023/02/09 03:28:19;;;;;;;;;;;;;;;;;;5066648;28;19920;-67
2023/02/09 03:30:45;;;;;;;;;;;;;;;;;;5061334;28;20302;-67
2023/02/09 03:33:11;;;;;;;;;;;;;;;;;;5063013;28;19928;-67
2023/02/09 03:35:36;;;;;;;;;;;;;;;;;;5066790;28;19924;-64
2023/02/09 03:38:05;;;;;;;;;;;;;;;;;;5069301;28;19935;-67
2023/02/09 03:40:31;;;;;;;;;;;;;;;;;;5072270;28;20442;-66
2023/02/09 03:42:57;;;;;;;;;;;;;;;;;;5070144;28;19999;-66
2023/02/09 03:45:23;;;;;;;;;;;;;;;;;;5071506;28;20049;-67
2023/02/09 03:47:49;;;;;;;;;;;;;;;;;;5074026;28;20302;-66
2023/02/09 03:50:15;;;;;;;;;;;;;;;;;;5055906;28;19924;-67
2023/02/09 03:52:41;;;;;;;;;;;;;;;;;;5066677;28;19986;-67
2023/02/09 03:55:07;;;;;;;;;;;;;;;;;;5065958;28;19921;-67
2023/02/09 03:57:33;;;;;;;;;;;;;;;;;;5062882;28;19925;-67
2023/02/09 04:00:00;;;;;;;;;;;;;;;;;;5069749;28;19924;-67
2023/02/09 04:02:26;;;;;;;;;;;;;;;;;;5070535;28;19920;-67
2023/02/09 04:04:52;;;;;;;;;;;;;;;;;;5071309;28;19970;-67
2023/02/09 04:07:18;;;;;;;;;;;;;;;;;;5069929;28;19974;-66
2023/02/09 04:09:44;;;;;;;;;;;;;;;;;;5069544;28;19920;-67
2023/02/09 04:12:10;;;;;;;;;;;;;;;;;;5069010;28;19966;-67
2023/02/09 04:14:36;;;;;;;;;;;;;;;;;;5062861;28;19924;-67
2023/02/09 04:17:01;;;;;;;;;;;;;;;;;;5070278;28;19931;-67
2023/02/09 04:19:27;;;;;;;;;;;;;;;;;;5071131;28;20020;-67
2023/02/09 04:21:53;;;;;;;;;;;;;;;;;;5073310;28;20328;-67
2023/02/09 04:24:20;;;;;;;;;;;;;;;;;;5073158;28;20512;-67
2023/02/09 04:26:46;;;;;;;;;;;;;;;;;;5072728;28;19920;-67
2023/02/09 04:29:12;;;;;;;;;;;;;;;;;;5066314;28;19928;-67
2023/02/09 04:31:38;;;;;;;;;;;;;;;;;;5072020;28;19929;-66
2023/02/09 04:34:04;;;;;;;;;;;;;;;;;;5072195;28;19929;-68
2023/02/09 04:36:30;;;;;;;;;;;;;;;;;;5068970;28;19947;-67
2023/02/09 04:38:56;;;;;;;;;;;;;;;;;;5072747;28;20438;-66
2023/02/09 04:41:21;;;;;;;;;;;;;;;;;;5074228;28;20003;-66
2023/02/09 04:43:47;;;;;;;;;;;;;;;;;;5067715;28;19921;-67
2023/02/09 04:46:13;;;;;;;;;;;;;;;;;;5069689;28;19921;-67
2023/02/09 04:48:39;;;;;;;;;;;;;;;;;;5072800;28;19927;-67
2023/02/09 04:51:05;;;;;;;;;;;;;;;;;;5073846;28;19920;-66
2023/02/09 04:53:31;;;;;;;;;;;;;;;;;;5072772;28;20345;-66
2023/02/09 04:55:57;;;;;;;;;;;;;;;;;;5070833;28;19970;-66
2023/02/09 05:01:07;;;;;;;;;;;;;;;;;;5067654;28;19932;-65
2023/02/09 05:03:33;;;;;;;;;;;;;;;;;;5072647;28;19927;-66
2023/02/09 05:05:59;;;;;;;;;;;;;;;;;;5071126;28;20343;-66
2023/02/09 05:08:25;;;;;;;;;;;;;;;;;;5072873;28;19927;-66
2023/02/09 05:10:51;;;;;;;;;;;;;;;;;;5074195;28;19990;-66
2023/02/09 05:13:17;;;;;;;;;;;;;;;;;;5072420;28;20263;-66
2023/02/09 05:15:43;;;;;;;;;;;;;;;;;;5071753;28;19928;-66
2023/02/09 05:18:09;;;;;;;;;;;;;;;;;;5059720;28;20330;-66
2023/02/09 05:20:35;;;;;;;;;;;;;;;;;;5054015;28;19932;-66
2023/02/09 05:23:01;;;;;;;;;;;;;;;;;;5071483;28;19928;-66
2023/02/09 05:25:27;;;;;;;;;;;;;;;;;;5065524;28;19944;-66
2023/02/09 05:27:53;;;;;;;;;;;;;;;;;;5071353;28;20557;-66
2023/02/09 05:30:19;;;;;;;;;;;;;;;;;;5070986;28;19927;-66
2023/02/09 05:32:44;;;;;;;;;;;;;;;;;;5069347;28;19928;-66
2023/02/09 05:35:10;;;;;;;;;;;;;;;;;;5072746;28;19951;-66
2023/02/09 05:37:36;;;;;;;;;;;;;;;;;;5073591;28;19929;-66
2023/02/09 05:40:02;;;;;;;;;;;;;;;;;;5073729;28;20005;-66
2023/02/09 05:42:28;;;;;;;;;;;;;;;;;;5066060;28;20485;-66
2023/02/09 05:44:54;;;;;;;;;;;;;;;;;;5065358;28;20363;-66
2023/02/09 05:47:20;;;;;;;;;;;;;;;;;;5072873;28;19931;-66
2023/02/09 05:49:46;;;;;;;;;;;;;;;;;;5073350;28;19921;-66
2023/02/09 05:52:12;;;;;;;;;;;;;;;;;;5073204;28;19921;-66
2023/02/09 05:54:38;;;;;;;;;;;;;;;;;;5073020;28;19921;-66
2023/02/09 05:57:04;;;;;;;;;;;;;;;;;;5070598;28;19986;-66
2023/02/09 05:59:29;;;;;;;;;;;;;;;;;;5071581;28;19920;-65
2023/02/09 06:01:55;;;;;;;;;;;;;;;;;;5070034;28;19928;-65
2023/02/09 06:04:21;;;;;;;;;;;;;;;;;;5070403;28;20390;-66
2023/02/09 06:06:47;;;;;;;;;;;;;;;;;;5069500;28;20267;-65
2023/02/09 06:09:13;;;;;;;;;;;;;;;;;;5071235;28;19970;-65
2023/02/09 06:11:39;;;;;;;;;;;;;;;;;;5070710;28;20007;-65
2023/02/09 06:14:05;;;;;;;;;;;;;;;;;;5072996;28;19989;-65
2023/02/09 06:16:31;;;;;;;;;;;;;;;;;;5067460;28;19928;-65
2023/02/09 06:18:57;;;;;;;;;;;;;;;;;;5072483;28;19966;-66
2023/02/09 06:21:23;;;;;;;;;;;;;;;;;;5068028;28;19921;-65
2023/02/09 06:23:49;;;;;;;;;;;;;;;;;;5071246;28;20015;-66
2023/02/09 06:26:14;;;;;;;;;;;;;;;;;;5070712;28;19928;-66
2023/02/09 06:28:40;;;;;;;;;;;;;;;;;;5071633;28;19921;-67
2023/02/09 06:31:06;;;;;;;;;;;;;;;;;;5069688;28;19920;-66
2023/02/09 06:33:32;;;;;;;;;;;;;;;;;;5097861;22;20420;-67
2023/02/09 06:35:58;;;;;;;;;;;;;;;;;;5049384;28;19928;-66
2023/02/09 06:38:24;;;;;;;;;;;;;;;;;;5048249;28;20269;-67
2023/02/09 06:40:50;;;;;;;;;;;;;;;;;;5050496;28;19925;-67
2023/02/09 06:43:16;;;;;;;;;;;;;;;;;;5040068;28;19928;-67
2023/02/09 06:45:42;;;;;;;;;;;;;;;;;;5043892;28;19924;-67
2023/02/09 06:48:07;;;;;;;;;;;;;;;;;;5046481;28;19932;-67
2023/02/09 06:50:33;;;;;;;;;;;;;;;;;;5033957;28;19964;-67
2023/02/09 06:52:59;;;;;;;;;;;;;;;;;;5048657;28;19921;-67
2023/02/09 06:55:25;;;;;;;;;;;;;;;;;;5026829;28;19925;-67
2023/02/09 06:57:51;;;;;;;;;;;;;;;;;;5026638;28;19925;-68
2023/02/09 07:00:17;;;;;;;;;;;;;;;;;;5027754;28;19921;-67
2023/02/09 07:02:43;;;;;;;;;;;;;;;;;;5046105;28;19975;-67
2023/02/09 07:05:09;;;;;;;;;;;;;;;;;;5043226;28;20003;-67
2023/02/09 07:07:35;;;;;;;;;;;;;;;;;;5027722;28;19975;-68
2023/02/09 07:10:01;;;;;;;;;;;;;;;;;;5047702;28;19927;-67
2023/02/09 07:12:26;;;;;;;;;;;;;;;;;;5042912;28;19971;-67
2023/02/09 07:14:52;;;;;;;;;;;;;;;;;;5048189;28;20385;-67
2023/02/09 07:17:18;;;;;;;;;;;;;;;;;;5026640;28;19939;-67
2023/02/09 07:19:45;;;;;;;;;;;;;;;;;;5031023;28;20285;-67
2023/02/09 07:22:11;;;;;;;;;;;;;;;;;;5033231;28;19928;-67
2023/02/09 07:24:37;;;;;;;;;;;;;;;;;;5047907;28;19991;-67
2023/02/09 07:27:03;;;;;;;;;;;;;;;;;;5024602;28;20381;-67
2023/02/09 07:29:29;;;;;;;;;;;;;;;;;;5045131;28;19924;-67
2023/02/09 07:31:54;;;;;;;;;;;;;;;;;;5039963;28;20293;-66
2023/02/09 07:34:20;;;;;;;;;;;;;;;;;;5036234;28;20397;-66
2023/02/09 07:36:46;;;;;;;;;;;;;;;;;;5050933;28;19929;-65
2023/02/09 07:39:12;;;;;;;;;;;;;;;;;;5034025;28;19956;-66
2023/02/09 07:41:38;;;;;;;;;;;;;;;;;;5039787;28;19929;-66
2023/02/09 07:44:04;;;;;;;;;;;;;;;;;;5023096;28;20293;-67
2023/02/09 07:46:30;;;;;;;;;;;;;;;;;;5045450;28;19928;-67
2023/02/09 07:48:56;;;;;;;;;;;;;;;;;;5045049;28;19921;-67
2023/02/09 07:51:26;;;;;;;;;;;;;;;;;;5049201;28;20027;-67
2023/02/09 07:53:52;;;;;;;;;;;;;;;;;;5048483;28;19920;-66
2023/02/09 07:56:18;;;;;;;;;;;;;;;;;;5039697;28;20299;-66
2023/02/09 07:58:44;;;;;;;;;;;;;;;;;;5047734;28;19928;-66
2023/02/09 08:01:10;;;;;;;;;;;;;;;;;;5050241;28;19928;-66
2023/02/09 08:03:36;;;;;;;;;;;;;;;;;;5049817;28;19920;-65
2023/02/09 08:06:01;;;;;;;;;;;;;;;;;;5037449;28;19929;-66
2023/02/09 08:08:27;;;;;;;;;;;;;;;;;;5049802;28;19929;-66
2023/02/09 08:10:53;;;;;;;;;;;;;;;;;;5051766;28;20003;-66
2023/02/09 08:13:19;;;;;;;;;;;;;;;;;;5051730;28;19948;-66
2023/02/09 08:15:45;;;;;;;;;;;;;;;;;;5030070;28;20020;-66
2023/02/09 08:18:11;;;;;;;;;;;;;;;;;;5039250;28;20367;-66
2023/02/09 08:20:37;;;;;;;;;;;;;;;;;;5018537;28;19929;-66
2023/02/09 08:23:03;;;;;;;;;;;;;;;;;;5035943;28;19921;-67
2023/02/09 08:25:29;;;;;;;;;;;;;;;;;;5054148;28;19921;-66
2023/02/09 08:27:55;;;;;;;;;;;;;;;;;;5048475;28;19924;-66
2023/02/09 08:30:20;;;;;;;;;;;;;;;;;;5035742;28;19921;-66
2023/02/09 08:32:47;;;;;;;;;;;;;;;;;;5054481;28;19932;-66
2023/02/09 08:35:12;;;;;;;;;;;;;;;;;;5042203;28;19922;-67
2023/02/09 08:37:38;;;;;;;;;;;;;;;;;;5045860;28;19928;-67
2023/02/09 08:40:04;;;;;;;;;;;;;;;;;;5054479;28;19924;-68
2023/02/09 08:42:30;;;;;;;;;;;;;;;;;;5051696;28;19921;-67
2023/02/09 08:44:56;;;;;;;;;;;;;;;;;;5049831;28;19980;-67
2023/02/09 08:47:22;;;;;;;;;;;;;;;;;;5044279;28;19925;-67
2023/02/09 08:49:49;;;;;;;;;;;;;;;;;;5045660;28;19943;-67
2023/02/09 08:52:15;;;;;;;;;;;;;;;;;;5047989;28;19925;-67
2023/02/09 08:54:41;;;;;;;;;;;;;;;;;;5030201;28;19925;-67
2023/02/09 08:57:07;;;;;;;;;;;;;;;;;;5051707;28;19932;-67
2023/02/09 08:59:33;;;;;;;;;;;;;;;;;;5034530;28;19952;-67
2023/02/09 09:01:59;;;;;;;;;;;;;;;;;;5035586;28;19921;-65
2023/02/09 09:04:25;;;;;;;;;;;;;;;;;;5041790;28;19921;-66
2023/02/09 09:06:51;;;;;;;;;;;;;;;;;;5043151;28;19921;-66
2023/02/09 09:09:16;;;;;;;;;;;;;;;;;;5040773;28;19924;-67
2023/02/09 09:11:42;;;;;;;;;;;;;;;;;;5055462;28;20518;-68
2023/02/09 09:14:08;;;;;;;;;;;;;;;;;;5052988;28;19921;-68
2023/02/09 09:16:34;;;;;;;;;;;;;;;;;;5041051;28;19925;-67
2023/02/09 09:19:00;;;;;;;;;;;;;;;;;;5032656;28;19995;-67
2023/02/09 09:21:26;;;;;;;;;;;;;;;;;;5046565;28;20434;-66
2023/02/09 09:23:52;;;;;;;;;;;;;;;;;;5044082;28;20516;-67
2023/02/09 09:26:18;;;;;;;;;;;;;;;;;;5035794;28;19972;-67
2023/02/09 09:28:44;;;;;;;;;;;;;;;;;;5032637;28;19974;-69
2023/02/09 09:31:10;;;;;;;;;;;;;;;;;;5018773;28;19925;-67
2023/02/09 09:33:36;;;;;;;;;;;;;;;;;;5032544;28;20031;-67
2023/02/09 09:36:02;;;;;;;;;;;;;;;;;;5053036;28;19925;-67
2023/02/09 09:38:27;;;;;;;;;;;;;;;;;;5051512;28;19974;-68
2023/02/09 09:40:53;;;;;;;;;;;;;;;;;;5053756;28;20375;-67
2023/02/09 09:43:19;;;;;;;;;;;;;;;;;;5053513;28;20007;-67
2023/02/09 09:45:45;;;;;;;;;;;;;;;;;;5053692;28;20020;-68
2023/02/09 09:48:11;;;;;;;;;;;;;;;;;;5043162;28;20287;-67
2023/02/09 09:50:37;;;;;;;;;;;;;;;;;;5022244;28;19933;-68
2023/02/09 09:53:03;;;;;;;;;;;;;;;;;;5029546;28;19921;-68
2023/02/09 09:55:29;;;;;;;;;;;;;;;;;;5046135;28;19999;-68
2023/02/09 09:57:55;;;;;;;;;;;;;;;;;;5050951;28;20275;-68
2023/02/09 10:00:21;;;;;;;;;;;;;;;;;;5050488;28;19925;-67
2023/02/09 10:02:46;;;;;;;;;;;;;;;;;;5033160;28;19975;-66
2023/02/09 10:05:12;;;;;;;;;;;;;;;;;;5050171;28;20305;-67
2023/02/09 10:07:38;;;;;;;;;;;;;;;;;;5042231;28;19928;-67
2023/02/09 10:10:04;;;;;;;;;;;;;;;;;;5036454;28;19925;-68
2023/02/09 10:12:30;;;;;;;;;;;;;;;;;;5045403;28;19925;-68
2023/02/09 10:14:56;;;;;;;;;;;;;;;;;;5032453;28;19931;-68
2023/02/09 10:17:22;;;;;;;;;;;;;;;;;;5033358;28;19970;-68
2023/02/09 10:19:48;;;;;;;;;;;;;;;;;;5049201;28;19925;-68
2023/02/09 10:22:14;;;;;;;;;;;;;;;;;;5033310;28;19921;-68
2023/02/09 10:24:40;;;;;;;;;;;;;;;;;;5042074;28;19929;-69
2023/02/09 10:27:07;;;;;;;;;;;;;;;;;;5052609;28;20362;-67
2023/02/09 10:29:34;;;;;;;;;;;;;;;;;;5049863;28;19924;-68
2023/02/09 10:31:59;;;;;;;;;;;;;;;;;;5049809;28;20382;-68
2023/02/09 10:34:25;;;;;;;;;;;;;;;;;;5050285;28;19931;-68
2023/02/09 10:36:51;;;;;;;;;;;;;;;;;;5030915;28;19925;-68
2023/02/09 10:39:17;;;;;;;;;;;;;;;;;;5048293;28;19955;-68
2023/02/09 10:41:43;;;;;;;;;;;;;;;;;;5045771;28;19924;-69
2023/02/09 10:44:09;;;;;;;;;;;;;;;;;;5041804;28;19929;-69
2023/02/09 10:46:35;;;;;;;;;;;;;;;;;;5047159;28;19928;-69
2023/02/09 10:49:02;;;;;;;;;;;;;;;;;;5016816;28;19927;-70
2023/02/09 10:51:28;;;;;;;;;;;;;;;;;;5046784;28;19921;-68
2023/02/09 10:53:53;;;;;;;;;;;;;;;;;;5023642;28;20365;-68
2023/02/09 10:56:21;;;;;;;;;;;;;;;;;;5030644;28;20403;-68
2023/02/09 10:58:47;;;;;;;;;;;;;;;;;;5046866;28;19929;-69
2023/02/09 11:01:13;;;;;;;;;;;;;;;;;;5023904;28;19928;-69
2023/02/09 11:03:39;;;;;;;;;;;;;;;;;;5047316;28;20363;-69
2023/02/09 11:06:05;;;;;;;;;;;;;;;;;;5048210;28;19982;-69
2023/02/09 11:08:31;;;;;;;;;;;;;;;;;;5049709;28;19928;-70
2023/02/09 11:10:56;;;;;;;;;;;;;;;;;;5025985;28;19968;-69
2023/02/09 11:13:23;;;;;;;;;;;;;;;;;;5030106;28;19931;-69
2023/02/09 11:15:49;;;;;;;;;;;;;;;;;;5031539;28;19979;-68
2023/02/09 11:18:15;;;;;;;;;;;;;;;;;;5031954;28;20385;-69
2023/02/09 11:20:41;;;;;;;;;;;;;;;;;;5045864;28;19925;-70
2023/02/09 11:23:07;;;;;;;;;;;;;;;;;;5032333;28;20032;-67
2023/02/09 11:25:33;;;;;;;;;;;;;;;;;;5018351;28;19927;-69
2023/02/09 11:27:59;;;;;;;;;;;;;;;;;;5044996;28;20286;-67
2023/02/09 11:30:24;;;;;;;;;;;;;;;;;;5019962;28;19952;-68
2023/02/09 11:32:50;;;;;;;;;;;;;;;;;;5028876;28;19924;-68
2023/02/09 11:35:17;;;;;;;;;;;;;;;;;;5025404;28;19974;-69
2023/02/09 11:37:43;;;;;;;;;;;;;;;;;;5039306;28;19939;-69
2023/02/09 11:40:09;;;;;;;;;;;;;;;;;;5022215;28;19921;-69
2023/02/09 11:42:44;;;;;;;;;;;;;;;;;;5024879;28;20015;-69
2023/02/09 11:45:10;;;;;;;;;;;;;;;;;;5020554;28;20385;-70
2023/02/09 11:47:36;;;;;;;;;;;;;;;;;;5031871;28;19929;-69
2023/02/09 11:50:02;;;;;;;;;;;;;;;;;;5024691;28;19974;-69
2023/02/09 11:52:28;;;;;;;;;;;;;;;;;;5025646;28;20382;-69
2023/02/09 11:54:54;;;;;;;;;;;;;;;;;;5041971;28;19999;-70
2023/02/09 11:57:20;;;;;;;;;;;;;;;;;;5042835;28;19929;-69
2023/02/09 11:59:46;;;;;;;;;;;;;;;;;;5048811;28;20008;-69
2023/02/09 12:02:12;;;;;;;;;;;;;;;;;;5022596;28;19928;-70
2023/02/09 12:04:38;;;;;;;;;;;;;;;;;;5048638;28;19925;-67
2023/02/09 12:07:04;;;;;;;;;;;;;;;;;;5049653;28;19936;-68
2023/02/09 12:09:30;;;;;;;;;;;;;;;;;;5050755;28;19928;-68
2023/02/09 12:11:56;;;;;;;;;;;;;;;;;;5048970;28;19925;-68
2023/02/09 12:14:22;;;;;;;;;;;;;;;;;;5048681;28;20277;-68
2023/02/09 12:16:48;;;;;;;;;;;;;;;;;;5039881;28;19976;-69
2023/02/09 12:19:14;;;;;;;;;;;;;;;;;;5050329;28;19997;-69
2023/02/09 12:21:40;;;;;;;;;;;;;;;;;;5046344;28;20029;-68
2023/02/09 12:24:06;;;;;;;;;;;;;;;;;;5027702;28;19924;-69
2023/02/09 12:26:32;;;;;;;;;;;;;;;;;;5030962;28;20035;-68
2023/02/09 12:29:03;;;;;;;;;;;;;;;;;;5046728;28;19921;-69
2023/02/09 12:31:29;;;;;;;;;;;;;;;;;;5020327;28;19921;-69
2023/02/09 12:33:55;;;;;;;;;;;;;;;;;;5046329;28;20390;-69
2023/02/09 12:36:21;;;;;;;;;;;;;;;;;;5048579;28;20628;-69
2023/02/09 12:38:46;;;;;;;;;;;;;;;;;;5031538;28;19932;-69
2023/02/09 12:41:12;;;;;;;;;;;;;;;;;;5030587;28;19928;-67
2023/02/09 12:43:38;;;;;;;;;;;;;;;;;;5053986;28;19929;-68
2023/02/09 12:46:04;;;;;;;;;;;;;;;;;;5039016;28;19951;-69
2023/02/09 12:48:30;;;;;;;;;;;;;;;;;;5044714;28;19921;-68
2023/02/09 12:50:56;;;;;;;;;;;;;;;;;;5016553;28;19932;-69
2023/02/09 12:53:22;;;;;;;;;;;;;;;;;;5029475;28;20361;-69
2023/02/09 12:55:48;;;;;;;;;;;;;;;;;;5052560;28;19967;-69
2023/02/09 12:58:14;;;;;;;;;;;;;;;;;;5050546;28;19921;-67
2023/02/09 13:00:40;;;;;;;;;;;;;;;;;;5053457;28;20346;-68
2023/02/09 13:03:06;;;;;;;;;;;;;;;;;;5050837;28;19968;-68
2023/02/09 13:05:32;;;;;;;;;;;;;;;;;;5035190;28;19921;-68
2023/02/09 13:07:58;;;;;;;;;;;;;;;;;;5054069;28;19927;-68
2023/02/09 13:10:24;;;;;;;;;;;;;;;;;;5017848;28;20007;-68
2023/02/09 13:12:50;;;;;;;;;;;;;;;;;;5050027;28;19997;-69
2023/02/09 13:15:16;;;;;;;;;;;;;;;;;;5045781;28;19920;-69
2023/02/09 13:17:42;;;;;;;;;;;;;;;;;;5053860;28;19925;-69
2023/02/09 13:20:08;;;;;;;;;;;;;;;;;;5049725;28;19925;-68
2023/02/09 13:22:34;;;;;;;;;;;;;;;;;;5052281;28;19924;-68
2023/02/09 13:24:59;;;;;;;;;;;;;;;;;;5051020;28;19928;-68
2023/02/09 13:27:25;;;;;;;;;;;;;;;;;;5051638;28;19927;-68
2023/02/09 13:29:52;;;;;;;;;;;;;;;;;;5051741;28;19932;-69
2023/02/09 13:32:19;;;;;;;;;;;;;;;;;;5045461;28;19932;-68
2023/02/09 13:34:45;;;;;;;;;;;;;;;;;;5049489;28;19925;-68
2023/02/09 13:37:10;;;;;;;;;;;;;;;;;;5034348;28;19924;-68
2023/02/09 13:39:36;;;;;;;;;;;;;;;;;;5052714;28;19925;-69
2023/02/09 13:42:02;;;;;;;;;;;;;;;;;;5034390;28;19927;-69
2023/02/09 13:44:28;;;;;;;;;;;;;;;;;;5033943;28;20007;-69
2023/02/09 13:46:54;;;;;;;;;;;;;;;;;;5052423;28;19935;-69
2023/02/09 13:49:20;;;;;;;;;;;;;;;;;;5048966;28;19921;-69
2023/02/09 13:51:46;;;;;;;;;;;;;;;;;;5053399;28;19928;-69
2023/02/09 13:54:12;;;;;;;;;;;;;;;;;;5048987;28;19924;-69
2023/02/09 13:56:38;;;;;;;;;;;;;;;;;;5046666;28;19978;-69
2023/02/09 13:59:04;;;;;;;;;;;;;;;;;;5027775;28;19921;-68
2023/02/09 14:01:30;;;;;;;;;;;;;;;;;;5030451;28;19927;-68
2023/02/09 14:03:56;;;;;;;;;;;;;;;;;;5009991;28;20014;-68
2023/02/09 14:06:22;;;;;;;;;;;;;;;;;;5028814;28;19921;-68
2023/02/09 14:08:48;;;;;;;;;;;;;;;;;;5050689;28;19921;-69
2023/02/09 14:11:14;;;;;;;;;;;;;;;;;;5029441;28;20637;-68
2023/02/09 14:13:39;;;;;;;;;;;;;;;;;;5050321;28;19972;-67
2023/02/09 14:16:06;;;;;;;;;;;;;;;;;;5046194;28;20289;-68
2023/02/09 14:18:32;;;;;;;;;;;;;;;;;;5014697;28;19975;-68
2023/02/09 14:20:57;;;;;;;;;;;;;;;;;;5043928;28;19928;-69
2023/02/09 14:23:23;;;;;;;;;;;;;;;;;;5039588;28;19932;-68
2023/02/09 14:25:49;;;;;;;;;;;;;;;;;;5051465;28;19932;-69
2023/02/09 14:28:15;;;;;;;;;;;;;;;;;;5051012;28;19960;-69
2023/02/09 14:30:41;;;;;;;;;;;;;;;;;;5030906;28;19928;-69
2023/02/09 14:33:07;;;;;;;;;;;;;;;;;;5047762;28;20015;-69
2023/02/09 14:35:33;;;;;;;;;;;;;;;;;;5049804;28;19956;-69
2023/02/09 14:37:59;;;;;;;;;;;;;;;;;;5050576;28;19921;-69
2023/02/09 14:40:25;;;;;;;;;;;;;;;;;;5052304;28;19932;-68
2023/02/09 14:42:50;;;;;;;;;;;;;;;;;;5051203;28;19983;-69
2023/02/09 14:45:16;;;;;;;;;;;;;;;;;;5031598;28;20289;-68
2023/02/09 14:47:42;;;;;;;;;;;;;;;;;;5031608;28;19920;-69
2023/02/09 14:50:08;;;;;;;;;;;;;;;;;;5049337;28;19967;-68
2023/02/09 14:52:37;;;;;;;;;;;;;;;;;;5051090;28;19947;-68
2023/02/09 14:55:03;;;;;;;;;;;;;;;;;;5023843;28;19921;-69
2023/02/09 14:57:29;;;;;;;;;;;;;;;;;;5047791;28;19982;-68
2023/02/09 14:59:55;;;;;;;;;;;;;;;;;;5032387;28;20026;-69
2023/02/09 15:02:22;;;;;;;;;;;;;;;;;;5051324;28;19931;-68
2023/02/09 15:04:48;;;;;;;;;;;;;;;;;;5048587;28;19925;-69
2023/02/09 15:07:14;;;;;;;;;;;;;;;;;;5048697;28;19925;-69
2023/02/09 15:09:40;;;;;;;;;;;;;;;;;;5041853;28;20322;-68
2023/02/09 15:12:06;;;;;;;;;;;;;;;;;;5032058;28;19928;-67
2023/02/09 15:14:32;;;;;;;;;;;;;;;;;;5020804;28;20350;-68
2023/02/09 15:16:58;;;;;;;;;;;;;;;;;;5051031;28;19982;-68
2023/02/09 15:19:24;;;;;;;;;;;;;;;;;;5032563;28;19920;-67
2023/02/09 15:21:50;;;;;;;;;;;;;;;;;;5044981;28;19925;-67
2023/02/09 15:24:15;;;;;;;;;;;;;;;;;;5007354;28;19951;-68
2023/02/09 15:26:41;;;;;;;;;;;;;;;;;;5045934;28;19978;-69
2023/02/09 15:29:07;;;;;;;;;;;;;;;;;;5050233;28;19978;-69
2023/02/09 15:31:33;;;;;;;;;;;;;;;;;;5049348;28;20565;-69
2023/02/09 15:33:59;;;;;;;;;;;;;;;;;;5013912;28;19932;-69
2023/02/09 15:36:25;;;;;;;;;;;;;;;;;;5035560;28;20027;-69
2023/02/09 15:38:51;;;;;;;;;;;;;;;;;;5051029;28;19927;-69
2023/02/09 15:49:30;;;;;;;;;;;;;;;;;;5027931;28;19929;-70
2023/02/09 15:51:56;;;;;;;;;;;;;;;;;;5049986;28;19928;-70
2023/02/09 15:54:23;;;;;;;;;;;;;;;;;;5044140;28;19928;-70
2023/02/09 15:56:49;;;;;;;;;;;;;;;;;;5027476;28;20325;-70
2023/02/09 15:59:15;;;;;;;;;;;;;;;;;;5045667;28;20468;-69
2023/02/09 16:01:41;;;;;;;;;;;;;;;;;;5050091;28;20467;-70
2023/02/09 16:04:07;;;;;;;;;;;;;;;;;;5031060;28;19932;-70
2023/02/09 16:06:34;;;;;;;;;;;;;;;;;;5045550;28;19951;-69
2023/02/09 16:09:00;;;;;;;;;;;;;;;;;;5028214;28;19921;-69
2023/02/09 16:11:26;;;;;;;;;;;;;;;;;;5046820;28;19929;-70
2023/02/09 16:13:52;;;;;;;;;;;;;;;;;;5047592;28;19924;-70
2023/02/09 16:16:18;;;;;;;;;;;;;;;;;;5048177;28;19928;-70
2023/02/09 16:18:43;;;;;;;;;;;;;;;;;;5050959;28;19974;-70
2023/02/09 16:21:09;;;;;;;;;;;;;;;;;;5051387;28;19927;-70
2023/02/09 16:23:36;;;;;;;;;;;;;;;;;;5051477;28;20333;-70
2023/02/09 16:26:04;;;;;;;;;;;;;;;;;;5050514;28;19932;-70
2023/02/09 16:28:29;;;;;;;;;;;;;;;;;;5033019;28;20297;-70
2023/02/09 16:30:55;;;;;;;;;;;;;;;;;;5049635;28;19929;-70
2023/02/09 16:33:21;;;;;;;;;;;;;;;;;;5049203;28;20019;-71
2023/02/09 16:35:47;;;;;;;;;;;;;;;;;;5044228;28;19929;-70
2023/02/09 16:38:13;;;;;;;;;;;;;;;;;;5028722;28;20321;-70
2023/02/09 16:40:39;;;;;;;;;;;;;;;;;;5046815;28;19920;-70
2023/02/09 16:43:05;;;;;;;;;;;;;;;;;;5048769;28;19936;-70
2023/02/09 16:45:31;;;;;;;;;;;;;;;;;;5050462;28;19932;-70
2023/02/09 16:47:58;;;;;;;;;;;;;;;;;;5053979;28;19960;-70
2023/02/09 16:50:24;;;;;;;;;;;;;;;;;;5051145;28;20398;-70